Time;durP1;ratioP1;P1;durP2;ratioP2;P2;SDS_P1;SDS_P2;PMS_P1;PMS_P2;Temp;Humidity;BMP_temperature;BMP_pressure;BME280_temperature;BME280_humidity;BME280_pressure;Samples;Min_cycle;Max_cycle;Signal;HPM_P1;HPM_P2
2021/04/17 00:01:44;;;;;;;0.20;0.20;;;4.10;97.10;;;;;;5010099;28;20068;-84
2021/04/17 00:04:11;;;;;;;0.20;0.20;;;3.80;97.80;;;;;;5010099;28;20076;-83
2021/04/17 00:06:37;;;;;;;0.10;0.10;;;3.70;98.10;;;;;;5008938;28;20578;-84
2021/04/17 00:09:13;;;;;;;0.40;0.28;;;3.60;98.20;;;;;;5009864;28;20041;-84
2021/04/17 00:11:41;;;;;;;3.42;0.95;;;3.90;98.20;;;;;;5009436;28;20054;-84
2021/04/17 00:14:11;;;;;;;0.65;0.65;;;3.60;98.40;;;;;;5024799;28;20040;-84
2021/04/17 00:16:36;;;;;;;0.20;0.20;;;3.60;98.40;;;;;;5009724;28;20026;-83
2021/04/17 00:19:03;;;;;;;0.30;0.30;;;3.60;98.40;;;;;;5008478;28;20048;-83
2021/04/17 00:21:28;;;;;;;0.60;0.52;;;3.60;98.70;;;;;;5010043;28;20048;-84
2021/04/17 00:23:54;;;;;;;0.30;0.30;;;3.90;97.90;;;;;;5009982;28;20109;-83
2021/04/17 00:26:20;;;;;;;0.30;0.30;;;3.50;99.00;;;;;;5010068;28;20030;-84
2021/04/17 00:28:46;;;;;;;0.30;0.30;;;3.40;99.30;;;;;;5010029;28;20577;-83
2021/04/17 00:31:11;;;;;;;0.10;0.10;;;3.20;99.60;;;;;;5009956;28;20489;-83
2021/04/17 00:33:37;;;;;;;0.30;0.30;;;3.10;99.90;;;;;;5009941;28;20022;-83
2021/04/17 00:36:03;;;;;;;0.30;0.30;;;3.10;99.90;;;;;;5009773;28;20540;-82
2021/04/17 00:38:29;;;;;;;0.68;0.45;;;3.50;99.40;;;;;;5009637;28;20061;-82
2021/04/17 00:40:58;;;;;;;0.17;0.17;;;3.40;99.40;;;;;;5008326;28;20053;-83
2021/04/17 00:43:24;;;;;;;0.30;0.30;;;3.60;99.30;;;;;;5024261;28;20113;-82
2021/04/17 00:45:49;;;;;;;0.43;0.43;;;3.40;99.50;;;;;;5009726;28;20506;-82
2021/04/17 00:48:15;;;;;;;0.10;0.10;;;3.30;99.90;;;;;;5009196;28;20524;-82
2021/04/17 00:50:42;;;;;;;0.25;0.25;;;3.30;99.80;;;;;;5009324;28;20398;-82
2021/04/17 00:53:08;;;;;;;0.43;0.43;;;3.10;99.90;;;;;;5008909;28;20029;-82
2021/04/17 00:55:34;;;;;;;0.30;0.30;;;2.90;99.90;;;;;;5009124;28;20029;-82
2021/04/17 00:58:04;;;;;;;0.47;0.47;;;3.00;99.90;;;;;;5009197;28;20230;-82
2021/04/17 01:00:33;;;;;;;0.10;0.10;;;3.20;99.90;;;;;;5009086;28;20034;-83
2021/04/17 01:03:01;;;;;;;0.57;0.55;;;3.10;99.90;;;;;;5009197;28;20115;-83
2021/04/17 01:05:29;;;;;;;0.13;0.13;;;2.80;99.90;;;;;;5008844;28;20025;-84
2021/04/17 01:07:58;;;;;;;0.20;0.20;;;3.10;99.90;;;;;;5009032;28;20130;-83
2021/04/17 01:10:41;;;;;;;0.20;0.20;;;3.10;99.90;;;;;;5008972;28;20022;-83
2021/04/17 01:13:09;;;;;;;0.30;0.30;;;3.00;99.90;;;;;;5009305;28;20060;-84
2021/04/17 01:15:37;;;;;;;0.15;0.15;;;2.80;99.90;;;;;;5007699;28;20402;-84
2021/04/17 01:18:03;;;;;;;0.10;0.10;;;2.70;99.90;;;;;;5009182;28;20095;-84
2021/04/17 01:20:41;;;;;;;0.30;0.30;;;2.60;99.90;;;;;;5009179;28;20509;-83
2021/04/17 01:23:32;;;;;;;0.30;0.30;;;3.00;99.90;;;;;;5013074;28;20042;-83
2021/04/17 01:26:14;;;;;;;0.10;0.10;;;3.10;99.90;;;;;;5016045;28;20029;-82
2021/04/17 01:28:46;;;;;;;0.10;0.10;;;2.80;99.90;;;;;;5014243;28;20442;-82
2021/04/17 01:31:15;;;;;;;0.38;0.38;;;2.80;99.90;;;;;;5015803;28;20032;-82
2021/04/17 01:33:46;;;;;;;0.45;0.45;;;2.80;99.90;;;;;;5015737;28;20034;-82
2021/04/17 01:36:15;;;;;;;0.13;0.13;;;2.80;99.90;;;;;;5015819;28;20057;-83
2021/04/17 01:38:43;;;;;;;0.45;0.45;;;2.70;99.90;;;;;;5014944;28;20088;-83
2021/04/17 01:41:14;;;;;;;0.20;0.20;;;2.90;99.90;;;;;;5015580;28;20022;-83
2021/04/17 01:43:41;;;;;;;0.20;0.20;;;2.70;99.90;;;;;;5015071;28;20889;-83
2021/04/17 01:46:11;;;;;;;0.10;0.10;;;2.50;99.90;;;;;;5015462;28;20049;-83
2021/04/17 01:48:38;;;;;;;0.20;0.20;;;2.60;99.90;;;;;;5014903;28;20026;-83
2021/04/17 01:51:05;;;;;;;0.35;0.35;;;2.70;99.90;;;;;;5015147;28;20022;-83
2021/04/17 01:53:32;;;;;;;0.30;0.30;;;2.60;99.90;;;;;;5013748;28;20043;-83
2021/04/17 01:55:59;;;;;;;;;;;2.60;99.90;;;;;;5015643;28;20706;-83
2021/04/17 01:58:29;;;;;;;1.00;0.88;;;2.50;99.90;;;;;;5015018;28;19913;-82
2021/04/17 02:00:57;;;;;;;0.40;0.40;;;2.40;99.90;;;;;;5014898;28;20029;-82
2021/04/17 02:03:23;;;;;;;0.20;0.20;;;2.50;99.90;;;;;;5015004;28;20072;-83
2021/04/17 02:05:50;;;;;;;0.22;0.22;;;2.40;99.90;;;;;;5015052;28;20103;-83
2021/04/17 02:08:15;;;;;;;;;;;2.40;99.90;;;;;;5015739;28;20026;-83
2021/04/17 02:10:42;;;;;;;0.20;0.20;;;2.40;99.90;;;;;;5014882;28;19909;-83
2021/04/17 02:13:08;;;;;;;0.10;0.10;;;2.30;99.90;;;;;;5015306;28;20032;-83
2021/04/17 02:15:36;;;;;;;0.47;0.47;;;2.30;99.90;;;;;;5014825;28;20037;-83
2021/04/17 02:18:07;;;;;;;0.30;0.30;;;2.30;99.90;;;;;;5029330;28;20144;-84
2021/04/17 02:20:40;;;;;;;0.20;0.20;;;2.20;99.90;;;;;;5014938;28;20076;-83
2021/04/17 02:23:06;;;;;;;1.98;1.27;;;2.10;99.90;;;;;;5015076;28;20092;-83
2021/04/17 02:25:32;;;;;;;0.20;0.20;;;2.00;99.90;;;;;;5015539;28;20101;-83
2021/04/17 02:27:58;;;;;;;0.33;0.33;;;2.20;99.90;;;;;;5014709;28;20036;-83
2021/04/17 02:30:24;;;;;;;0.10;0.10;;;2.30;99.90;;;;;;5014978;28;20042;-84
2021/04/17 02:32:50;;;;;;;0.45;0.45;;;2.40;99.90;;;;;;5014870;28;20057;-84
2021/04/17 02:35:16;;;;;;;0.38;0.38;;;2.20;99.90;;;;;;5011760;28;20034;-84
2021/04/17 02:37:42;;;;;;;0.28;0.28;;;2.30;99.90;;;;;;5011660;28;20402;-84
2021/04/17 02:40:08;;;;;;;0.30;0.30;;;2.40;99.90;;;;;;5011984;28;20061;-83
2021/04/17 02:42:34;;;;;;;0.13;0.13;;;2.40;99.90;;;;;;5011516;28;20777;-84
2021/04/17 02:45:00;;;;;;;0.17;0.17;;;2.10;99.90;;;;;;5011795;28;20079;-83
2021/04/17 02:47:26;;;;;;;0.10;0.10;;;2.10;99.90;;;;;;5011675;28;20097;-82
2021/04/17 02:49:52;;;;;;;0.45;0.45;;;2.30;99.90;;;;;;5011389;28;20037;-84
2021/04/17 02:52:18;;;;;;;0.20;0.20;;;2.30;99.90;;;;;;5011585;28;20810;-83
2021/04/17 02:54:43;;;;;;;0.10;0.10;;;2.20;99.90;;;;;;5011555;28;20115;-84
2021/04/17 02:57:09;;;;;;;0.25;0.25;;;2.10;99.90;;;;;;5011315;28;20394;-84
2021/04/17 02:59:35;;;;;;;0.10;0.10;;;2.10;99.90;;;;;;5011154;28;20041;-84
2021/04/17 03:02:01;;;;;;;0.32;0.30;;;2.00;99.90;;;;;;5010742;28;20406;-83
2021/04/17 03:04:27;;;;;;;0.82;0.82;;;2.10;99.90;;;;;;5011110;28;20034;-83
2021/04/17 03:06:53;;;;;;;0.25;0.25;;;2.10;99.90;;;;;;5010937;28;20433;-83
2021/04/17 03:09:19;;;;;;;0.10;0.10;;;2.00;99.90;;;;;;5011012;28;20049;-83
2021/04/17 03:11:45;;;;;;;2.67;1.55;;;2.00;99.90;;;;;;5011274;28;20033;-83
2021/04/17 03:14:10;;;;;;;0.32;0.32;;;2.00;99.90;;;;;;5009212;28;20120;-84
2021/04/17 03:16:36;;;;;;;0.13;0.13;;;1.90;99.90;;;;;;5010970;28;20445;-83
2021/04/17 03:19:03;;;;;;;0.20;0.20;;;2.00;99.90;;;;;;5010564;28;20038;-83
2021/04/17 03:21:28;;;;;;;0.20;0.20;;;1.80;99.90;;;;;;5011180;28;20097;-84
2021/04/17 03:23:54;;;;;;;0.13;0.13;;;1.80;99.90;;;;;;5010667;28;20053;-84
2021/04/17 03:26:20;;;;;;;0.50;0.50;;;1.80;99.90;;;;;;5010908;28;20445;-84
2021/04/17 03:28:46;;;;;;;0.95;0.55;;;1.80;99.90;;;;;;5010846;28;20028;-83
2021/04/17 03:31:11;;;;;;;0.60;0.60;;;1.90;99.90;;;;;;5010350;28;20037;-83
2021/04/17 03:33:38;;;;;;;0.47;0.47;;;2.00;99.90;;;;;;5010742;28;20026;-84
2021/04/17 03:36:05;;;;;;;0.40;0.40;;;2.10;99.90;;;;;;5009070;28;20462;-84
2021/04/17 03:38:30;;;;;;;0.30;0.30;;;1.90;99.90;;;;;;5010783;28;20288;-84
2021/04/17 03:40:56;;;;;;;0.38;0.38;;;1.90;99.90;;;;;;5010814;28;20033;-84
2021/04/17 03:43:22;;;;;;;0.20;0.20;;;1.80;99.90;;;;;;5010246;28;20057;-83
2021/04/17 03:45:48;;;;;;;0.28;0.28;;;1.90;99.90;;;;;;5010290;28;20076;-83
2021/04/17 03:48:14;;;;;;;0.77;0.77;;;1.90;99.90;;;;;;5010222;28;20040;-83
2021/04/17 03:50:39;;;;;;;0.60;0.60;;;1.90;99.90;;;;;;5010503;28;20020;-83
2021/04/17 03:53:05;;;;;;;1.35;0.95;;;1.90;99.90;;;;;;5010400;28;20026;-83
2021/04/17 03:55:31;;;;;;;0.75;0.75;;;1.80;99.90;;;;;;5010364;28;20048;-82
2021/04/17 03:57:57;;;;;;;0.38;0.38;;;1.80;99.90;;;;;;5010560;28;20065;-82
2021/04/17 04:00:23;;;;;;;1.15;1.10;;;1.70;99.90;;;;;;5009969;28;20046;-81
2021/04/17 04:02:49;;;;;;;0.38;0.38;;;2.00;99.90;;;;;;5010485;28;20029;-81
2021/04/17 04:05:16;;;;;;;2.30;1.45;;;1.60;99.90;;;;;;5010076;28;20551;-82
2021/04/17 04:07:42;;;;;;;0.10;0.10;;;1.50;99.90;;;;;;5009133;28;20030;-83
2021/04/17 04:10:10;;;;;;;0.23;0.23;;;1.60;99.90;;;;;;5009149;28;20037;-82
2021/04/17 04:12:36;;;;;;;0.47;0.43;;;1.50;99.90;;;;;;5010152;28;20060;-84
2021/04/17 04:15:03;;;;;;;0.17;0.17;;;1.60;99.90;;;;;;5009864;28;20061;-82
2021/04/17 04:17:29;;;;;;;0.20;0.20;;;1.60;99.90;;;;;;5009941;28;20056;-81
2021/04/17 04:19:55;;;;;;;0.10;0.10;;;1.80;99.90;;;;;;5009936;28;20485;-81
2021/04/17 04:22:20;;;;;;;0.10;0.10;;;1.60;99.90;;;;;;5009850;28;20088;-81
2021/04/17 04:24:47;;;;;;;0.10;0.10;;;1.90;99.90;;;;;;5009791;28;20072;-81
2021/04/17 04:27:13;;;;;;;1.38;1.27;;;1.80;99.90;;;;;;5010177;28;20120;-82
2021/04/17 04:29:39;;;;;;;0.25;0.25;;;1.80;99.90;;;;;;5009687;28;20080;-82
2021/04/17 04:32:05;;;;;;;0.65;0.65;;;2.00;99.90;;;;;;5010044;28;20018;-82
2021/04/17 04:34:31;;;;;;;0.47;0.47;;;1.90;99.90;;;;;;5009108;28;20034;-82
2021/04/17 04:36:57;;;;;;;0.20;0.20;;;1.90;99.90;;;;;;5009753;28;20040;-81
2021/04/17 04:39:22;;;;;;;0.10;0.10;;;1.70;99.90;;;;;;5009369;28;20036;-82
2021/04/17 04:41:48;;;;;;;0.20;0.20;;;1.80;99.90;;;;;;5009747;28;20034;-82
2021/04/17 04:44:14;;;;;;;1.77;0.95;;;1.80;99.90;;;;;;5009754;28;20040;-82
2021/04/17 04:46:40;;;;;;;0.50;0.50;;;1.90;99.90;;;;;;5009454;28;20072;-81
2021/04/17 04:49:05;;;;;;;0.82;0.82;;;1.60;99.90;;;;;;5009453;28;20052;-81
2021/04/17 04:51:31;;;;;;;0.20;0.20;;;1.50;99.90;;;;;;5009427;28;20029;-81
2021/04/17 04:53:57;;;;;;;0.10;0.10;;;1.50;99.90;;;;;;5009463;28;20065;-81
2021/04/17 04:56:23;;;;;;;0.70;0.70;;;1.60;99.90;;;;;;5009386;28;20034;-81
2021/04/17 04:58:50;;;;;;;0.10;0.10;;;1.70;99.90;;;;;;5008706;28;20032;-81
2021/04/17 05:01:15;;;;;;;;;;;1.50;99.90;;;;;;5009946;28;20474;-81
2021/04/17 05:03:41;;;;;;;0.30;0.30;;;1.40;99.90;;;;;;5009278;28;19909;-82
2021/04/17 05:06:07;;;;;;;0.20;0.20;;;1.50;99.90;;;;;;5009602;28;20113;-84
2021/04/17 05:08:33;;;;;;;0.20;0.20;;;1.60;99.90;;;;;;5024334;28;20073;-82
2021/04/17 05:10:58;;;;;;;0.10;0.10;;;1.60;99.90;;;;;;5007835;28;20030;-83
2021/04/17 05:13:24;;;;;;;0.28;0.28;;;1.60;99.90;;;;;;5024434;28;20034;-84
2021/04/17 05:15:50;;;;;;;0.20;0.20;;;1.70;99.90;;;;;;5007754;28;20034;-83
2021/04/17 05:18:16;;;;;;;0.63;0.63;;;1.70;99.90;;;;;;5009378;28;20105;-83
2021/04/17 05:20:42;;;;;;;0.10;0.10;;;2.00;99.90;;;;;;5009104;28;20482;-84
2021/04/17 05:23:08;;;;;;;0.68;0.68;;;2.50;99.90;;;;;;5023897;28;20038;-83
2021/04/17 05:25:33;;;;;;;0.88;0.88;;;2.80;99.90;;;;;;5009022;28;20462;-83
2021/04/17 05:27:59;;;;;;;0.40;0.40;;;3.10;99.90;;;;;;5009123;28;20030;-84
2021/04/17 05:30:25;;;;;;;0.40;0.40;;;3.40;99.90;;;;;;5008955;28;20113;-85
2021/04/17 05:32:51;;;;;;;0.28;0.28;;;3.80;99.90;;;;;;5009026;28;20071;-85
2021/04/17 05:35:17;;;;;;;0.30;0.30;;;4.00;99.90;;;;;;5009027;28;20041;-82
2021/04/17 05:37:42;;;;;;;0.90;0.90;;;4.20;99.90;;;;;;5008534;28;20037;-83
2021/04/17 05:40:09;;;;;;;1.65;0.77;;;4.60;99.90;;;;;;5001846;28;20550;-84
2021/04/17 05:42:35;;;;;;;0.10;0.10;;;5.00;99.90;;;;;;4991732;28;20022;-85
2021/04/17 05:45:00;;;;;;;1.05;0.95;;;5.60;99.90;;;;;;5007913;28;20033;-83
2021/04/17 05:47:26;;;;;;;0.20;0.20;;;5.70;99.90;;;;;;5008828;28;20057;-84
2021/04/17 05:49:52;;;;;;;2.08;1.10;;;5.90;99.90;;;;;;5000191;28;20038;-85
2021/04/17 05:52:18;;;;;;;0.80;0.80;;;6.10;99.90;;;;;;5019743;28;20033;-86
2021/04/17 05:54:44;;;;;;;0.55;0.55;;;6.50;99.90;;;;;;4997214;28;20411;-83
2021/04/17 05:57:10;;;;;;;0.20;0.20;;;6.70;99.90;;;;;;4999244;28;20035;-84
2021/04/17 05:59:36;;;;;;;0.30;0.30;;;6.80;99.90;;;;;;5000141;28;20506;-84
2021/04/17 06:02:02;;;;;;;0.45;0.40;;;7.70;98.80;;;;;;5006851;28;20036;-84
2021/04/17 06:04:27;;;;;;;0.10;0.10;;;7.60;99.40;;;;;;4989190;28;20030;-84
2021/04/17 06:06:53;;;;;;;0.75;0.75;;;8.00;98.00;;;;;;5003296;28;20022;-84
2021/04/17 06:09:21;;;;;;;0.40;0.40;;;8.10;97.80;;;;;;5009456;28;20038;-86
2021/04/17 06:11:47;;;;;;;0.75;0.75;;;8.70;96.60;;;;;;5003568;28;20022;-84
2021/04/17 06:14:14;;;;;;;0.03;0.03;;;8.70;96.70;;;;;;4995891;28;20058;-85
2021/04/17 06:16:42;;;;;;;0.40;0.40;;;9.00;96.70;;;;;;5001293;28;20085;-86
2021/04/17 06:19:09;;;;;;;0.88;0.57;;;9.10;99.90;;;;;;5007803;28;20026;-86
2021/04/17 06:21:35;;;;;;;;;;;9.80;94.80;;;;;;5002280;28;20041;-86
2021/04/17 06:24:07;;;;;;;0.00;0.00;;;9.20;95.50;;;;;;4993889;28;19997;-86
2021/04/17 06:26:33;;;;;;;0.10;0.10;;;9.60;95.30;;;;;;4997054;28;20022;-86
2021/04/17 06:29:05;;;;;;;0.20;0.20;;;10.00;95.60;;;;;;5002245;28;20026;-85
2021/04/17 06:31:31;;;;;;;0.70;0.45;;;10.40;95.20;;;;;;5007395;28;20076;-85
2021/04/17 06:34:00;;;;;;;0.30;0.30;;;10.00;94.30;;;;;;4991302;28;20038;-85
2021/04/17 06:36:26;;;;;;;0.70;0.52;;;11.30;92.70;;;;;;5008782;28;20026;-85
2021/04/17 06:38:51;;;;;;;0.43;0.43;;;11.40;94.00;;;;;;4995000;28;20022;-83
2021/04/17 06:41:20;;;;;;;0.10;0.10;;;10.40;94.10;;;;;;4992167;28;20030;-83
2021/04/17 06:43:47;;;;;;;2.90;0.50;;;11.10;93.40;;;;;;5000580;28;20014;-85
2021/04/17 06:46:14;;;;;;;0.20;0.20;;;11.10;93.60;;;;;;5010174;28;20108;-85
2021/04/17 06:48:40;;;;;;;0.50;0.50;;;11.80;92.50;;;;;;5002627;28;20018;-85
2021/04/17 06:51:14;;;;;;;0.60;0.60;;;12.30;91.70;;;;;;4993818;28;20038;-85
2021/04/17 06:53:41;;;;;;;0.10;0.10;;;10.80;93.60;;;;;;5004063;28;20092;-83
2021/04/17 06:56:07;;;;;;;0.65;0.25;;;11.10;93.70;;;;;;4994921;28;20025;-87
2021/04/17 06:58:33;;;;;;;0.40;0.40;;;11.40;93.60;;;;;;4993674;28;20034;-83
2021/04/17 07:01:00;;;;;;;0.98;0.98;;;9.70;95.50;;;;;;5004896;28;20031;-84
2021/04/17 07:03:25;;;;;;;0.20;0.20;;;10.60;95.00;;;;;;5005302;28;20073;-85
2021/04/17 07:05:51;;;;;;;0.73;0.32;;;10.30;95.00;;;;;;5003446;28;20502;-84
2021/04/17 07:08:17;;;;;;;1.55;0.90;;;9.80;95.60;;;;;;5011251;28;20394;-84
2021/04/17 07:10:43;;;;;;;0.20;0.20;;;10.00;95.70;;;;;;5021155;28;20036;-83
2021/04/17 07:13:11;;;;;;;0.40;0.40;;;10.20;95.40;;;;;;5001219;28;20061;-83
2021/04/17 07:15:38;;;;;;;0.63;0.63;;;11.00;93.80;;;;;;5010943;28;20104;-84
2021/04/17 07:18:26;;;;;;;0.73;0.73;;;10.80;94.40;;;;;;4996365;28;20083;-84
2021/04/17 07:20:53;;;;;;;0.30;0.30;;;12.20;93.00;;;;;;5003099;28;20076;-84
2021/04/17 07:23:31;;;;;;;0.30;0.30;;;10.90;95.10;;;;;;5003387;28;20060;-83
2021/04/17 07:26:17;;;;;;;0.95;0.95;;;10.90;94.80;;;;;;5006186;28;20121;-84
2021/04/17 07:28:55;;;;;;;1.23;1.10;;;12.40;92.00;;;;;;4990875;28;20458;-84
2021/04/17 07:31:26;;;;;;;0.40;0.40;;;11.50;93.30;;;;;;5014535;28;20030;-84
2021/04/17 07:33:53;;;;;;;0.50;0.50;;;12.20;92.00;;;;;;5016451;28;20401;-84
2021/04/17 07:36:19;;;;;;;0.28;0.28;;;12.70;92.00;;;;;;4994530;28;20037;-84
2021/04/17 07:38:46;;;;;;;0.32;0.32;;;11.80;92.30;;;;;;5009975;28;20044;-84
2021/04/17 07:41:17;;;;;;;0.30;0.30;;;12.00;92.30;;;;;;5009590;28;20460;-83
2021/04/17 07:43:58;;;;;;;2.08;0.98;;;12.10;92.90;;;;;;4991848;28;20061;-83
2021/04/17 07:46:31;;;;;;;0.25;0.25;;;12.90;91.70;;;;;;5010291;28;20022;-84
2021/04/17 07:49:15;;;;;;;0.10;0.10;;;13.70;90.00;;;;;;5007305;28;20081;-83
2021/04/17 07:52:05;;;;;;;0.30;0.30;;;12.20;92.70;;;;;;4990872;28;20037;-84
2021/04/17 07:54:31;;;;;;;0.30;0.30;;;12.40;91.30;;;;;;5002749;28;20034;-83
2021/04/17 07:57:03;;;;;;;0.10;0.10;;;12.90;90.70;;;;;;4992536;28;20027;-83
2021/04/17 07:59:30;;;;;;;0.50;0.50;;;12.10;91.50;;;;;;4991333;28;20145;-83
2021/04/17 08:01:57;;;;;;;0.43;0.43;;;13.20;90.60;;;;;;5009021;28;20378;-83
2021/04/17 08:04:26;;;;;;;0.40;0.40;;;11.50;93.00;;;;;;4998378;28;20088;-83
2021/04/17 08:06:54;;;;;;;1.00;0.63;;;12.20;91.70;;;;;;4990977;28;20022;-83
2021/04/17 08:09:22;;;;;;;0.30;0.30;;;11.80;92.10;;;;;;4994109;28;20028;-83
2021/04/17 08:11:54;;;;;;;0.47;0.47;;;12.10;91.40;;;;;;5022468;28;20037;-83
2021/04/17 08:14:22;;;;;;;0.45;0.45;;;13.10;90.00;;;;;;4994338;28;20124;-83
2021/04/17 08:16:48;;;;;;;0.68;0.68;;;11.90;91.70;;;;;;5001131;28;20030;-83
2021/04/17 08:19:15;;;;;;;0.40;0.40;;;12.10;92.00;;;;;;4990449;28;20096;-83
2021/04/17 08:21:42;;;;;;;0.15;0.15;;;12.50;90.00;;;;;;5001428;28;20046;-83
2021/04/17 08:24:09;;;;;;;3.45;0.77;;;13.00;89.30;;;;;;4999716;28;20505;-83
2021/04/17 08:26:36;;;;;;;0.47;0.47;;;12.60;90.70;;;;;;5005623;28;20113;-83
2021/04/17 08:29:02;;;;;;;0.43;0.43;;;13.10;88.30;;;;;;4992858;28;20029;-83
2021/04/17 08:31:34;;;;;;;0.73;0.60;;;13.50;89.80;;;;;;5002428;28;20490;-83
2021/04/17 08:34:18;;;;;;;0.43;0.43;;;14.20;87.60;;;;;;4989493;28;20034;-85
2021/04/17 08:36:46;;;;;;;0.77;0.73;;;12.60;89.80;;;;;;4995476;28;20101;-84
2021/04/17 08:39:44;;;;;;;0.30;0.30;;;13.60;88.20;;;;;;4999449;28;20037;-85
2021/04/17 08:42:15;;;;;;;0.30;0.30;;;14.30;84.90;;;;;;4970620;28;20118;-83
2021/04/17 08:44:44;;;;;;;0.20;0.20;;;14.00;85.40;;;;;;4986110;28;20177;-83
2021/04/17 08:47:11;;;;;;;0.10;0.10;;;13.90;84.10;;;;;;4986164;28;20399;-83
2021/04/17 08:49:40;;;;;;;0.15;0.15;;;14.90;82.60;;;;;;4987001;28;20248;-83
2021/04/17 08:52:22;;;;;;;2.63;0.75;;;13.90;87.00;;;;;;4970594;28;20129;-84
2021/04/17 08:54:54;;;;;;;3.72;0.88;;;14.70;84.50;;;;;;4987119;28;20034;-83
2021/04/17 08:57:21;;;;;;;0.10;0.10;;;14.30;80.40;;;;;;4986260;28;20073;-83
2021/04/17 08:59:55;;;;;;;1.52;0.95;;;15.20;81.20;;;;;;4986033;28;20034;-84
2021/04/17 09:02:23;;;;;;;0.40;0.40;;;16.10;78.20;;;;;;4987422;28;20034;-83
2021/04/17 09:05:00;;;;;;;0.10;0.10;;;14.90;82.00;;;;;;4978028;28;20515;-83
2021/04/17 09:07:28;;;;;;;0.30;0.30;;;17.00;75.40;;;;;;4987078;28;20200;-83
2021/04/17 09:09:54;;;;;;;2.35;1.15;;;16.10;78.00;;;;;;4986499;28;20391;-83
2021/04/17 09:12:23;;;;;;;0.35;0.35;;;15.30;76.20;;;;;;4986814;28;20416;-84
2021/04/17 09:14:53;;;;;;;0.52;0.43;;;15.20;75.90;;;;;;4986403;28;20549;-85
2021/04/17 09:17:31;;;;;;;0.30;0.30;;;16.80;70.80;;;;;;4988964;28;20060;-85
2021/04/17 09:19:59;;;;;;;0.28;0.28;;;16.60;74.60;;;;;;4995128;28;20030;-84
2021/04/17 09:22:31;;;;;;;0.68;0.68;;;16.30;76.20;;;;;;4994394;28;20054;-82
2021/04/17 09:25:14;;;;;;;0.43;0.38;;;16.80;74.30;;;;;;4997553;28;20761;-84
2021/04/17 09:27:49;;;;;;;7.13;0.57;;;14.20;73.60;;;;;;5001585;28;20022;-83
2021/04/17 09:30:21;;;;;;;0.47;0.47;;;16.60;68.90;;;;;;4993188;28;20065;-82
2021/04/17 09:32:51;;;;;;;0.22;0.22;;;16.70;66.20;;;;;;4996995;28;20037;-80
2021/04/17 09:35:26;;;;;;;1.65;1.35;;;18.00;70.00;;;;;;5001753;28;20030;-79
2021/04/17 09:38:05;;;;;;;0.50;0.50;;;19.30;64.30;;;;;;4999617;28;20109;-80
2021/04/17 09:40:37;;;;;;;0.70;0.70;;;18.50;63.70;;;;;;4997564;28;20030;-80
2021/04/17 09:43:19;;;;;;;0.30;0.30;;;17.00;66.00;;;;;;5009979;28;20390;-79
2021/04/17 09:45:49;;;;;;;0.30;0.30;;;19.20;64.30;;;;;;5001663;28;20018;-81
2021/04/17 09:48:21;;;;;;;0.40;0.20;;;20.10;60.50;;;;;;5006630;28;20116;-80
2021/04/17 09:50:56;;;;;;;0.43;0.43;;;15.80;68.20;;;;;;4999924;28;20022;-79
2021/04/17 09:53:29;;;;;;;0.93;0.88;;;20.70;58.40;;;;;;5003899;28;20038;-80
2021/04/17 09:56:11;;;;;;;0.20;0.20;;;19.30;59.50;;;;;;4998930;28;20030;-80
2021/04/17 09:58:50;;;;;;;0.30;0.30;;;19.90;60.80;;;;;;5005996;28;20833;-80
2021/04/17 10:01:20;;;;;;;6.32;1.38;;;15.30;65.90;;;;;;5019882;28;20034;-82
2021/04/17 10:03:54;;;;;;;0.22;0.22;;;13.80;73.20;;;;;;5001784;28;20893;-82
2021/04/17 10:06:37;;;;;;;0.35;0.35;;;12.00;76.30;;;;;;5004489;28;20030;-82
2021/04/17 10:09:11;;;;;;;0.15;0.15;;;16.70;68.10;;;;;;5003098;28;20034;-82
2021/04/17 10:11:39;;;;;;;0.30;0.20;;;13.00;72.90;;;;;;5003438;28;20026;-83
2021/04/17 10:14:07;;;;;;;0.05;0.05;;;11.70;78.90;;;;;;5004052;28;20034;-82
2021/04/17 10:16:41;;;;;;;0.15;0.15;;;16.10;69.90;;;;;;5005723;28;20065;-82
2021/04/17 10:19:13;;;;;;;0.25;0.25;;;14.60;69.60;;;;;;5001637;28;20083;-83
2021/04/17 10:21:42;;;;;;;0.30;0.30;;;17.90;65.10;;;;;;5002714;28;20046;-83
2021/04/17 10:24:30;;;;;;;0.55;0.35;;;17.60;66.00;;;;;;5003398;28;20091;-82
2021/04/17 10:27:09;;;;;;;0.03;0.03;;;18.40;61.50;;;;;;5016267;28;20077;-84
2021/04/17 10:29:52;;;;;;;0.38;0.38;;;14.30;71.20;;;;;;4994727;28;20026;-83
2021/04/17 10:32:23;;;;;;;0.13;0.13;;;15.10;73.10;;;;;;4998988;28;20109;-82
2021/04/17 10:35:07;;;;;;;0.10;0.10;;;17.60;63.00;;;;;;5020760;28;20038;-82
2021/04/17 10:37:47;;;;;;;0.25;0.25;;;15.00;64.90;;;;;;4994781;28;20042;-82
2021/04/17 10:40:15;;;;;;;0.10;0.10;;;15.10;84.90;;;;;;5006107;28;20076;-82
2021/04/17 10:42:55;;;;;;;0.40;0.28;;;17.30;64.90;;;;;;5000137;28;20029;-83
2021/04/17 10:45:40;;;;;;;0.28;0.28;;;17.30;66.50;;;;;;5000232;28;20100;-83
2021/04/17 10:48:09;;;;;;;0.20;0.20;;;19.80;59.70;;;;;;4995129;28;20022;-82
2021/04/17 10:50:40;;;;;;;0.52;0.47;;;13.50;68.40;;;;;;5000121;28;20034;-81
2021/04/17 10:53:16;;;;;;;0.63;0.22;;;11.90;74.40;;;;;;5005213;28;20026;-82
2021/04/17 10:55:50;;;;;;;0.22;0.22;;;17.00;68.50;;;;;;5000721;28;20037;-83
2021/04/17 10:58:29;;;;;;;0.00;0.00;;;21.30;51.60;;;;;;4995029;28;20033;-83
2021/04/17 11:00:58;;;;;;;0.10;0.10;;;21.50;49.10;;;;;;4999154;28;20462;-83
2021/04/17 11:03:29;;;;;;;0.63;0.63;;;19.10;60.40;;;;;;4997085;28;20026;-83
2021/04/17 11:05:56;;;;;;;0.10;0.10;;;20.10;57.50;;;;;;4998449;28;20019;-82
2021/04/17 11:08:28;;;;;;;0.10;0.10;;;23.30;44.40;;;;;;5004420;28;20037;-83
2021/04/17 11:10:54;;;;;;;0.10;0.10;;;24.30;45.80;;;;;;5005677;28;20018;-85
2021/04/17 11:13:35;;;;;;;0.65;0.65;;;21.70;48.80;;;;;;4994417;28;20035;-85
2021/04/17 11:16:02;;;;;;;0.20;0.20;;;18.70;55.80;;;;;;5004105;28;20155;-82
2021/04/17 11:18:36;;;;;;;0.10;0.10;;;18.00;61.80;;;;;;4994785;28;20123;-83
2021/04/17 11:21:27;;;;;;;2.17;0.73;;;19.70;56.50;;;;;;4994921;28;20076;-82
2021/04/17 11:23:57;;;;;;;0.10;0.10;;;19.00;59.40;;;;;;4998824;28;20092;-81
2021/04/17 11:26:30;;;;;;;0.20;0.20;;;19.70;58.50;;;;;;4996762;28;20038;-82
2021/04/17 11:29:04;;;;;;;0.50;0.50;;;20.40;56.40;;;;;;5003074;28;20021;-82
2021/04/17 11:31:32;;;;;;;0.22;0.20;;;19.90;52.60;;;;;;4995889;28;20034;-82
2021/04/17 11:34:00;;;;;;;0.47;0.32;;;18.40;58.00;;;;;;5009203;28;20120;-82
2021/04/17 11:36:28;;;;;;;0.32;0.15;;;14.00;61.50;;;;;;4999093;28;20030;-81
2021/04/17 11:38:54;;;;;;;0.05;0.05;;;12.50;69.20;;;;;;4996534;28;20045;-82
2021/04/17 11:41:21;;;;;;;1.13;0.90;;;11.90;70.00;;;;;;4999155;28;20401;-82
2021/04/17 11:43:47;;;;;;;0.10;0.10;;;12.70;67.70;;;;;;4999773;28;20108;-82
2021/04/17 11:46:14;;;;;;;0.13;0.13;;;13.00;67.10;;;;;;5011929;28;20573;-82
2021/04/17 11:48:41;;;;;;;0.00;0.00;;;12.70;67.00;;;;;;5001917;28;20018;-81
2021/04/17 11:51:13;;;;;;;0.20;0.20;;;13.70;66.40;;;;;;5001381;28;20434;-82
2021/04/17 11:53:39;;;;;;;0.10;0.10;;;13.00;68.20;;;;;;5002866;28;20030;-82
2021/04/17 11:56:05;;;;;;;0.40;0.40;;;12.70;68.60;;;;;;4996740;28;20556;-82
2021/04/17 11:58:31;;;;;;;0.03;0.03;;;12.60;69.30;;;;;;4999352;28;20032;-82
2021/04/17 12:00:57;;;;;;;0.00;0.00;;;12.90;67.90;;;;;;4994064;28;20022;-81
2021/04/17 12:03:23;;;;;;;0.20;0.20;;;13.10;67.30;;;;;;4995904;28;20113;-82
2021/04/17 12:05:51;;;;;;;0.10;0.10;;;13.60;66.80;;;;;;5000426;28;20126;-82
2021/04/17 12:08:18;;;;;;;0.30;0.30;;;12.50;70.70;;;;;;4998183;28;20019;-81
2021/04/17 12:10:44;;;;;;;0.20;0.20;;;13.10;67.80;;;;;;5004157;28;20061;-82
2021/04/17 12:13:11;;;;;;;0.10;0.10;;;13.90;65.80;;;;;;4994812;28;20048;-82
2021/04/17 12:15:38;;;;;;;1.13;1.08;;;13.40;67.30;;;;;;4999819;28;20054;-81
2021/04/17 12:18:04;;;;;;;0.30;0.30;;;13.10;66.90;;;;;;4999487;28;20072;-81
2021/04/17 12:20:31;;;;;;;0.00;0.00;;;12.20;69.60;;;;;;4992216;28;20120;-82
2021/04/17 12:22:57;;;;;;;0.13;0.13;;;12.40;69.10;;;;;;4993987;28;20050;-82
2021/04/17 12:25:31;;;;;;;0.20;0.20;;;12.90;68.50;;;;;;4991633;28;20121;-82
2021/04/17 12:27:58;;;;;;;0.10;0.10;;;13.60;68.60;;;;;;4999761;28;20033;-82
2021/04/17 12:30:25;;;;;;;1.42;0.35;;;14.00;64.90;;;;;;4994465;28;20042;-82
2021/04/17 12:32:52;;;;;;;7.38;2.10;;;14.20;64.90;;;;;;4995560;28;20787;-82
2021/04/17 12:35:21;;;;;;;0.15;0.15;;;13.00;66.50;;;;;;4997734;28;20021;-82
2021/04/17 12:37:49;;;;;;;0.17;0.17;;;13.50;66.60;;;;;;4994293;28;20520;-83
2021/04/17 12:40:18;;;;;;;0.30;0.30;;;13.60;65.20;;;;;;4998772;28;20042;-83
2021/04/17 12:42:46;;;;;;;0.10;0.10;;;13.30;66.80;;;;;;4998755;28;20446;-83
2021/04/17 12:45:13;;;;;;;0.17;0.15;;;13.60;66.70;;;;;;5003556;28;20030;-82
2021/04/17 12:47:40;;;;;;;0.00;0.00;;;14.30;63.50;;;;;;5001175;28;20030;-82
2021/04/17 12:50:08;;;;;;;0.10;0.10;;;12.80;68.90;;;;;;5004143;28;20023;-82
2021/04/17 12:52:36;;;;;;;2.15;1.95;;;13.50;66.20;;;;;;4998462;28;20473;-82
2021/04/17 12:55:03;;;;;;;0.50;0.47;;;13.90;64.30;;;;;;5002685;28;20921;-83
2021/04/17 12:57:36;;;;;;;0.10;0.10;;;12.60;68.10;;;;;;4999448;28;20112;-82
2021/04/17 13:00:04;;;;;;;0.17;0.17;;;12.90;68.30;;;;;;4997560;28;20100;-83
2021/04/17 13:02:30;;;;;;;0.10;0.10;;;12.90;66.50;;;;;;4994903;28;20052;-83